Blairsville, GA

10:47 AM EST ar Tachwedd 19, 2017 (GMT -0500)
Old England | | Change Station
Active Advisory: Freeze Warning

Elev 1883 ft 34.90 °N, 84.03 °W | Updated 2 minutes ago

Cymylog Yn Rhannol
Cymylog Yn Rhannol
41.1 °F
Feels Like 36 °F
N
7.0
Gwynt Cyfnewidiol Gwynt from GGGw
Gusts 16.0 mph

Heddiw
High -- | Low -- °F
--% Chance of Precip.
Yesterday
High -- | Low -- °F
Precip. -- mod
Gwasgedd 30.01 mod
Gwelededd 10.0 Milltiroedd
Clouds Cymylau Gwasgaredig 3000 ft
Oerfel Gwynt 36 °F
Gwlithbwynt 34 °F
Lleithder 75%
Rainfall 0.00 mod
Snow Depth Not available.
7:14 AM 5:28 PM
New, 1% visible
METAR KRHP 191520Z AUTO 32003KT 10SM SCT030 05/M01 A3001 RMK AO2 T00541009
Gwasgedd 30.01 mod
Gwelededd 10.0 Milltiroedd
Clouds Cymylau Gwasgaredig 3000 ft
Oerfel Gwynt 36 °F
Gwlithbwynt 34 °F
Lleithder 75%
Rainfall 0.00 mod
Snow Depth Not available.
7:14 AM 5:28 PM
New, 1% visible
METAR KRHP 191520Z AUTO 32003KT 10SM SCT030 05/M01 A3001 RMK AO2 T00541009

Get Your Daily Forecast Email!

Thanks for signing up!

Be on the lookout for a verification email in your inbox.

You'll start receiving severe weather alerts in your inbox..

×

10-Day Weather Forecast

Almanac

Astronomy

Nov. 19, 2017 Rise Set
Actual Time
Civil Twilight
Nautical Twilight
Astronomical Twilight
Moon
Length Of Visible Light
Length of Day
Tomorrow will be .
, % of the Moon is Illuminated

Today's Extremes

State Highs State Lows

Community

WunderPhotos

Category 6

Welcome to Category 6. This is the collective home for Weather Underground's featured writeups by Dr. Jeff Masters (right), Bob Henson (left), Chris Burt, and other regular contributors.

Nearby

Air Quality

  Air Quality AQ Index Pollutant
Not available.

Snow Depth

Station Depth Elevation

Earthquake Activity

City Distance Mag. Time & Date
Minimum magnitude displayed is 2.5.

Coastal Water Temperatures

Lle Tymheredd

Stations

Nearby Weather Stations

Station Location Temp Oerfel Gwynt Gwlithbwynt Lleithder Gwynt Precip. Elev Diweddarwyd Type
                   

Watches & Warnings

Freeze Warning
Issued: 6:34 AM EST Nov. 19, 2017 – National Weather Service

... Freeze warning remains in effect from 10 PM this evening to
9 am EST Monday...
... Wind Advisory is cancelled...

The National Weather Service in Peachtree City has cancelled the
Wind Advisory.

* Temperatures... upper 20s late Sunday night into Monday morning.

* Locations... north Georgia including Atlanta Metro.

* Timing... from 10 PM Sunday to 9 am Monday.

* Impacts... include damage to sensitive vegetation. Take steps to
protect plants from the cold. Also take steps to protect pets
from the cold temperatures.

Precautionary/preparedness actions...

A freeze warning means sub-freezing temperatures are imminent or
highly likely. These conditions will kill crops and other
sensitive vegetation.